Time;durP1;ratioP1;P1;durP2;ratioP2;P2;SDS_P1;SDS_P2;PMS_P1;PMS_P2;Temp;Humidity;BMP_temperature;BMP_pressure;BME280_temperature;BME280_humidity;BME280_pressure;Samples;Min_cycle;Max_cycle;Signal;HPM_P1;HPM_P2
2023/04/24 00:00:14;;;;;;;2.40;1.37;;;;;;;;;;5058711;28;20104;-64
2023/04/24 00:02:40;;;;;;;2.40;1.10;;;;;;;;;;5052748;28;20388;-65
2023/04/24 00:05:06;;;;;;;2.37;1.30;;;;;;;;;;5059124;28;20079;-67
2023/04/24 00:07:32;;;;;;;2.70;1.37;;;;;;;;;;5063217;28;20096;-64
2023/04/24 00:09:57;;;;;;;2.37;1.30;;;;;;;;;;5053064;28;20469;-64
2023/04/24 00:12:23;;;;;;;4.03;1.77;;;;;;;;;;5063132;28;20054;-64
2023/04/24 00:14:48;;;;;;;2.33;1.50;;;;;;;;;;5056094;28;20021;-64
2023/04/24 00:17:13;;;;;;;3.10;1.77;;;;;;;;;;5049996;28;20029;-64
2023/04/24 00:19:39;;;;;;;4.00;1.70;;;;;;;;;;5047634;28;20192;-65
2023/04/24 00:22:04;;;;;;;2.90;1.70;;;;;;;;;;5063253;28;20526;-64
2023/04/24 00:24:29;;;;;;;3.67;2.13;;;;;;;;;;5072950;28;20480;-64
2023/04/24 00:26:55;;;;;;;3.33;2.03;;;;;;;;;;5055862;28;20474;-64
2023/04/24 00:29:20;;;;;;;4.33;2.40;;;;;;;;;;5057745;28;20476;-64
2023/04/24 00:31:45;;;;;;;3.53;2.30;;;;;;;;;;5051210;28;20036;-64
2023/04/24 00:34:11;;;;;;;3.70;2.60;;;;;;;;;;5049077;28;20021;-64
2023/04/24 00:36:37;;;;;;;4.43;2.73;;;;;;;;;;5062934;28;20108;-64
2023/04/24 00:39:02;;;;;;;4.07;2.33;;;;;;;;;;5051878;28;20086;-64
2023/04/24 00:41:27;;;;;;;3.40;2.30;;;;;;;;;;5052590;28;20029;-65
2023/04/24 00:43:52;;;;;;;4.40;2.47;;;;;;;;;;5047728;28;20030;-64
2023/04/24 00:46:18;;;;;;;4.13;2.40;;;;;;;;;;5048818;28;20025;-64
2023/04/24 00:48:44;;;;;;;3.80;2.50;;;;;;;;;;5047698;28;20029;-65
2023/04/24 00:51:09;;;;;;;3.30;2.37;;;;;;;;;;5061012;28;20017;-64
2023/04/24 00:53:35;;;;;;;4.57;2.33;;;;;;;;;;5054386;28;20076;-64
2023/04/24 00:56:01;;;;;;;3.37;2.37;;;;;;;;;;5054126;28;20037;-64
2023/04/24 00:58:26;;;;;;;3.63;2.27;;;;;;;;;;5056057;28;20066;-64
2023/04/24 01:03:55;;;;;;;3.57;2.40;;;;;;;;;;5064046;22;20087;-72
2023/04/24 01:06:20;;;;;;;4.43;2.37;;;;;;;;;;5060534;28;20431;-72
2023/04/24 01:08:46;;;;;;;3.00;1.90;;;;;;;;;;5054990;28;20389;-72
2023/04/24 01:11:11;;;;;;;3.70;1.90;;;;;;;;;;5053591;28;20027;-71
2023/04/24 01:13:37;;;;;;;2.90;1.83;;;;;;;;;;5053815;28;20029;-71
2023/04/24 01:16:02;;;;;;;3.47;1.80;;;;;;;;;;5054446;28;20029;-70
2023/04/24 01:18:28;;;;;;;3.33;2.10;;;;;;;;;;5054715;28;20059;-71
2023/04/24 01:20:55;;;;;;;2.90;1.90;;;;;;;;;;5054131;28;20025;-71
2023/04/24 01:23:20;;;;;;;3.87;2.30;;;;;;;;;;5053203;28;20130;-71
2023/04/24 01:25:46;;;;;;;4.53;2.07;;;;;;;;;;5054500;28;20052;-72
2023/04/24 01:28:13;;;;;;;3.40;2.20;;;;;;;;;;5054651;28;20385;-72
2023/04/24 01:30:39;;;;;;;3.30;2.00;;;;;;;;;;5054947;28;20028;-72
2023/04/24 01:33:05;;;;;;;3.50;2.07;;;;;;;;;;5063334;28;20357;-72
2023/04/24 01:35:30;;;;;;;3.40;2.03;;;;;;;;;;5069983;28;20021;-72
2023/04/24 01:37:55;;;;;;;4.37;2.07;;;;;;;;;;5052530;28;20028;-70
2023/04/24 01:40:21;;;;;;;4.10;2.00;;;;;;;;;;5048242;28;20025;-71
2023/04/24 01:42:46;;;;;;;4.00;2.10;;;;;;;;;;5052321;28;20028;-71
2023/04/24 01:45:12;;;;;;;4.90;2.90;;;;;;;;;;5055288;28;20056;-71
2023/04/24 01:47:38;;;;;;;4.23;2.63;;;;;;;;;;5058860;28;20025;-71
2023/04/24 01:50:04;;;;;;;5.27;3.30;;;;;;;;;;5058212;28;20017;-71
2023/04/24 01:52:31;;;;;;;5.50;4.47;;;;;;;;;;5052289;28;20021;-71
2023/04/24 01:54:56;;;;;;;8.20;5.40;;;;;;;;;;5053876;28;20048;-70
2023/04/24 01:57:22;;;;;;;7.03;5.67;;;;;;;;;;5052913;28;20080;-70
2023/04/24 01:59:47;;;;;;;7.57;6.43;;;;;;;;;;5066117;28;20017;-71
2023/04/24 02:02:12;;;;;;;9.93;7.07;;;;;;;;;;5048994;28;20079;-71
2023/04/24 02:04:37;;;;;;;7.57;5.00;;;;;;;;;;5053830;28;20488;-71
2023/04/24 02:07:03;;;;;;;9.33;6.97;;;;;;;;;;5052814;28;20024;-71
2023/04/24 02:09:28;;;;;;;9.00;7.03;;;;;;;;;;5051626;28;20465;-71
2023/04/24 02:11:53;;;;;;;9.27;6.90;;;;;;;;;;5052389;28;20028;-71
2023/04/24 02:14:19;;;;;;;9.37;6.43;;;;;;;;;;5052951;28;20025;-71
2023/04/24 02:16:44;;;;;;;11.50;7.60;;;;;;;;;;5047936;28;20048;-71
2023/04/24 02:19:10;;;;;;;11.70;7.87;;;;;;;;;;5048218;28;20033;-71
2023/04/24 02:21:35;;;;;;;13.33;8.00;;;;;;;;;;5051454;28;20025;-71
2023/04/24 02:24:01;;;;;;;9.10;7.07;;;;;;;;;;5051346;28;20025;-71
2023/04/24 02:26:26;;;;;;;8.87;6.77;;;;;;;;;;5050262;28;20037;-71
2023/04/24 02:28:51;;;;;;;8.40;6.00;;;;;;;;;;5052269;28;20104;-67
2023/04/24 02:31:16;;;;;;;9.43;6.87;;;;;;;;;;5049551;28;20047;-67
2023/04/24 02:33:42;;;;;;;9.83;6.73;;;;;;;;;;5051735;28;20025;-68
2023/04/24 02:36:07;;;;;;;9.70;6.97;;;;;;;;;;5052481;28;20028;-68
2023/04/24 02:38:32;;;;;;;8.77;5.03;;;;;;;;;;5053977;28;20116;-68
2023/04/24 02:40:58;;;;;;;9.37;4.53;;;;;;;;;;5046828;28;20020;-67
2023/04/24 02:43:23;;;;;;;9.03;5.70;;;;;;;;;;5053387;28;20029;-67
2023/04/24 02:45:48;;;;;;;8.27;6.30;;;;;;;;;;5050626;28;20078;-67
2023/04/24 02:48:14;;;;;;;7.50;5.37;;;;;;;;;;5047798;28;20060;-67
2023/04/24 02:50:39;;;;;;;10.40;6.00;;;;;;;;;;5044383;28;20048;-69
2023/04/24 02:53:04;;;;;;;9.40;5.80;;;;;;;;;;5051449;28;20457;-67
2023/04/24 02:55:30;;;;;;;8.93;5.87;;;;;;;;;;5049649;28;20067;-67
2023/04/24 02:57:55;;;;;;;8.50;5.13;;;;;;;;;;5051126;28;20049;-67
2023/04/24 03:00:20;;;;;;;7.43;5.50;;;;;;;;;;5050445;28;20024;-68
2023/04/24 03:02:46;;;;;;;7.63;5.27;;;;;;;;;;5051079;28;20699;-68
2023/04/24 03:05:14;;;;;;;7.70;5.67;;;;;;;;;;5050286;28;20021;-68
2023/04/24 03:07:39;;;;;;;8.80;6.03;;;;;;;;;;5051201;28;20039;-68
2023/04/24 03:10:05;;;;;;;7.90;5.70;;;;;;;;;;5052150;28;20024;-68
2023/04/24 03:12:31;;;;;;;7.90;6.40;;;;;;;;;;5049585;28;20029;-68
2023/04/24 03:14:56;;;;;;;10.90;6.27;;;;;;;;;;5049614;28;20059;-67
2023/04/24 03:17:21;;;;;;;8.60;6.23;;;;;;;;;;5050479;28;20021;-68
2023/04/24 03:19:46;;;;;;;8.60;6.13;;;;;;;;;;5051978;28;20066;-68
2023/04/24 03:22:12;;;;;;;8.70;5.80;;;;;;;;;;5052512;28;20036;-68
2023/04/24 03:24:37;;;;;;;8.57;6.23;;;;;;;;;;5050677;28;20052;-69
2023/04/24 03:27:02;;;;;;;8.20;5.57;;;;;;;;;;5051690;28;20025;-67
2023/04/24 03:29:28;;;;;;;8.87;6.27;;;;;;;;;;5051042;28;21101;-68
2023/04/24 03:31:53;;;;;;;8.13;5.80;;;;;;;;;;5049232;28;20067;-67
2023/04/24 03:34:18;;;;;;;7.77;5.60;;;;;;;;;;5048060;28;20032;-67
2023/04/24 03:36:44;;;;;;;7.63;5.13;;;;;;;;;;5048751;28;20028;-70
2023/04/24 03:39:10;;;;;;;9.03;4.70;;;;;;;;;;5050697;28;20059;-67
2023/04/24 03:41:35;;;;;;;7.00;4.57;;;;;;;;;;5049597;28;20029;-69
2023/04/24 03:44:00;;;;;;;5.50;3.70;;;;;;;;;;5051080;28;20025;-67
2023/04/24 03:46:26;;;;;;;7.10;4.50;;;;;;;;;;5045316;28;20029;-68
2023/04/24 03:48:51;;;;;;;6.23;4.30;;;;;;;;;;5052096;28;20524;-67
2023/04/24 03:51:16;;;;;;;6.97;4.40;;;;;;;;;;5031195;28;20031;-68
2023/04/24 03:53:42;;;;;;;6.40;4.00;;;;;;;;;;5052009;28;20067;-67
2023/04/24 03:56:07;;;;;;;6.77;3.87;;;;;;;;;;5050463;28;20025;-68
2023/04/24 03:58:32;;;;;;;7.33;3.90;;;;;;;;;;5051811;28;20035;-67
2023/04/24 04:00:58;;;;;;;6.77;3.70;;;;;;;;;;5047775;28;20024;-68
2023/04/24 04:03:23;;;;;;;5.57;3.37;;;;;;;;;;5040815;28;20143;-67
2023/04/24 04:05:49;;;;;;;4.40;2.87;;;;;;;;;;5047608;28;20461;-67
2023/04/24 04:08:14;;;;;;;5.47;3.40;;;;;;;;;;5045848;28;20036;-67
2023/04/24 04:10:40;;;;;;;7.33;3.50;;;;;;;;;;5043578;28;20033;-68
2023/04/24 04:13:06;;;;;;;6.23;3.20;;;;;;;;;;5050694;28;20083;-67
2023/04/24 04:15:31;;;;;;;4.97;3.03;;;;;;;;;;5047400;28;20045;-69
2023/04/24 04:17:57;;;;;;;6.37;3.30;;;;;;;;;;5045108;28;20025;-67
2023/04/24 04:20:22;;;;;;;5.73;3.43;;;;;;;;;;5050716;28;20048;-68
2023/04/24 04:22:47;;;;;;;5.60;3.80;;;;;;;;;;5051603;28;20025;-68
2023/04/24 04:25:13;;;;;;;5.53;3.60;;;;;;;;;;5049404;28;20029;-67
2023/04/24 04:27:38;;;;;;;5.80;3.60;;;;;;;;;;5051783;28;20027;-68
2023/04/24 04:30:04;;;;;;;6.70;3.10;;;;;;;;;;5048289;28;20478;-67
2023/04/24 04:32:32;;;;;;;6.43;3.30;;;;;;;;;;5046649;28;20032;-68
2023/04/24 04:34:58;;;;;;;5.80;2.80;;;;;;;;;;5048304;28;20477;-69
2023/04/24 04:37:23;;;;;;;6.77;3.87;;;;;;;;;;5049280;28;20079;-67
2023/04/24 04:39:49;;;;;;;7.83;4.63;;;;;;;;;;5052214;28;20458;-68
2023/04/24 04:42:15;;;;;;;6.57;4.27;;;;;;;;;;5052952;28;20481;-67
2023/04/24 04:44:40;;;;;;;8.27;4.77;;;;;;;;;;5053297;28;20029;-67
2023/04/24 04:47:06;;;;;;;8.03;4.80;;;;;;;;;;5050865;28;20029;-67
2023/04/24 04:49:34;;;;;;;9.77;5.53;;;;;;;;;;5054362;28;20491;-68
2023/04/24 04:52:00;;;;;;;9.37;6.03;;;;;;;;;;5046026;28;20021;-68
2023/04/24 04:54:25;;;;;;;8.53;5.57;;;;;;;;;;5047473;28;20074;-69
2023/04/24 04:56:50;;;;;;;8.10;4.83;;;;;;;;;;5046279;28;20493;-68
2023/04/24 04:59:16;;;;;;;11.83;6.83;;;;;;;;;;5048362;28;20040;-68
2023/04/24 05:01:41;;;;;;;8.13;4.97;;;;;;;;;;5047813;28;20063;-68
2023/04/24 05:04:06;;;;;;;10.70;7.10;;;;;;;;;;5048824;28;20110;-68
2023/04/24 05:06:32;;;;;;;10.07;6.63;;;;;;;;;;5047648;28;20086;-68
2023/04/24 05:08:57;;;;;;;8.90;6.57;;;;;;;;;;5049409;28;20025;-68
2023/04/24 05:11:23;;;;;;;10.50;6.50;;;;;;;;;;5048739;28;20029;-70
2023/04/24 05:13:48;;;;;;;11.80;7.17;;;;;;;;;;5055567;28;20465;-68
2023/04/24 05:16:13;;;;;;;12.63;7.40;;;;;;;;;;5055345;28;20139;-67
2023/04/24 05:18:39;;;;;;;11.57;7.53;;;;;;;;;;5055330;28;20025;-67
2023/04/24 05:21:04;;;;;;;11.47;7.80;;;;;;;;;;5052524;28;20040;-68
2023/04/24 05:23:29;;;;;;;12.03;6.80;;;;;;;;;;5053595;28;20060;-68
2023/04/24 05:25:54;;;;;;;10.50;6.63;;;;;;;;;;5053285;28;20045;-68
2023/04/24 05:28:20;;;;;;;11.87;8.10;;;;;;;;;;5052265;28;20534;-68
2023/04/24 05:30:46;;;;;;;11.67;7.97;;;;;;;;;;5050668;28;20025;-67
2023/04/24 05:33:11;;;;;;;12.13;7.77;;;;;;;;;;5054586;28;20124;-67
2023/04/24 05:35:36;;;;;;;11.67;7.30;;;;;;;;;;5052987;28;20489;-67
2023/04/24 05:38:02;;;;;;;11.10;7.63;;;;;;;;;;5054885;28;20056;-68
2023/04/24 05:40:27;;;;;;;14.00;9.90;;;;;;;;;;5053491;28;20107;-68
2023/04/24 05:42:52;;;;;;;13.50;9.67;;;;;;;;;;5055369;28;20037;-67
2023/04/24 05:45:17;;;;;;;14.93;10.07;;;;;;;;;;5053633;28;20465;-68
2023/04/24 05:47:43;;;;;;;15.23;10.47;;;;;;;;;;5053789;28;20037;-67
2023/04/24 05:50:09;;;;;;;15.83;10.27;;;;;;;;;;5053868;28;20021;-67
2023/04/24 05:52:34;;;;;;;18.73;10.77;;;;;;;;;;5051504;28;20029;-67
2023/04/24 05:55:00;;;;;;;11.87;8.70;;;;;;;;;;5052376;28;20031;-67
2023/04/24 05:57:25;;;;;;;13.70;9.20;;;;;;;;;;5049697;28;20025;-67
2023/04/24 05:59:51;;;;;;;15.50;11.73;;;;;;;;;;5053859;28;20094;-68
2023/04/24 06:02:17;;;;;;;14.37;9.97;;;;;;;;;;5053010;28;20114;-68
2023/04/24 06:04:42;;;;;;;14.10;9.37;;;;;;;;;;5054919;28;20025;-67
2023/04/24 06:07:07;;;;;;;17.33;11.87;;;;;;;;;;5054428;28;20465;-67
2023/04/24 06:09:33;;;;;;;16.70;10.80;;;;;;;;;;5052386;28;20048;-68
2023/04/24 06:11:59;;;;;;;16.73;11.70;;;;;;;;;;5053921;28;20028;-67
2023/04/24 06:14:25;;;;;;;14.50;8.23;;;;;;;;;;5054405;28;20096;-67
2023/04/24 06:16:50;;;;;;;15.30;9.77;;;;;;;;;;5051925;28;20488;-67
2023/04/24 06:19:16;;;;;;;15.57;8.60;;;;;;;;;;5053678;28;20123;-67
2023/04/24 06:21:41;;;;;;;17.13;11.27;;;;;;;;;;5052170;28;20083;-67
2023/04/24 06:24:06;;;;;;;11.63;7.47;;;;;;;;;;5053801;28;20079;-68
2023/04/24 06:26:32;;;;;;;15.43;9.70;;;;;;;;;;5035128;28;20036;-66
2023/04/24 06:28:59;;;;;;;13.87;9.13;;;;;;;;;;5053638;28;20025;-67
2023/04/24 06:31:24;;;;;;;16.37;9.17;;;;;;;;;;5052339;28;20457;-68
2023/04/24 06:33:49;;;;;;;14.57;9.10;;;;;;;;;;5035988;28;20017;-68
2023/04/24 06:36:15;;;;;;;13.00;6.90;;;;;;;;;;5051370;28;20106;-67
2023/04/24 06:38:40;;;;;;;14.00;8.93;;;;;;;;;;5052035;28;20440;-67
2023/04/24 06:41:06;;;;;;;16.83;8.87;;;;;;;;;;5051932;28;20429;-66
2023/04/24 06:43:31;;;;;;;13.03;7.20;;;;;;;;;;5053599;28;20036;-66
2023/04/24 06:45:57;;;;;;;13.40;7.63;;;;;;;;;;5052919;28;20033;-66
2023/04/24 06:48:23;;;;;;;12.23;8.47;;;;;;;;;;5052674;28;20029;-66
2023/04/24 06:50:49;;;;;;;16.13;7.27;;;;;;;;;;5052995;28;20036;-66
2023/04/24 06:53:14;;;;;;;12.47;8.43;;;;;;;;;;5053748;28;20013;-66
2023/04/24 06:55:39;;;;;;;13.13;7.83;;;;;;;;;;5051413;28;20021;-67
2023/04/24 06:58:05;;;;;;;12.00;7.47;;;;;;;;;;5052924;28;20376;-67
2023/04/24 07:00:31;;;;;;;11.23;7.10;;;;;;;;;;5053226;28;20036;-66
2023/04/24 07:02:57;;;;;;;12.00;7.93;;;;;;;;;;5052078;28;20168;-67
2023/04/24 07:05:23;;;;;;;12.00;7.43;;;;;;;;;;5058064;28;20033;-66
2023/04/24 07:07:49;;;;;;;13.43;8.23;;;;;;;;;;5050634;28;20498;-68
2023/04/24 07:10:15;;;;;;;14.73;8.17;;;;;;;;;;5053143;28;20013;-71
2023/04/24 07:12:40;;;;;;;12.77;7.60;;;;;;;;;;5051148;28;20020;-72
2023/04/24 07:15:06;;;;;;;12.77;8.33;;;;;;;;;;5053392;28;20541;-71
2023/04/24 07:17:31;;;;;;;12.43;8.50;;;;;;;;;;5053217;28;20492;-71
2023/04/24 07:19:56;;;;;;;13.07;7.13;;;;;;;;;;5053409;28;20035;-72
2023/04/24 07:22:22;;;;;;;16.33;8.27;;;;;;;;;;5052538;28;20095;-72
2023/04/24 07:24:48;;;;;;;13.10;8.60;;;;;;;;;;5053532;28;20021;-72
2023/04/24 07:27:14;;;;;;;14.50;8.23;;;;;;;;;;5049422;28;20021;-72
2023/04/24 07:29:40;;;;;;;15.23;9.90;;;;;;;;;;5051823;28;20052;-70
2023/04/24 07:32:05;;;;;;;12.37;7.87;;;;;;;;;;5050892;28;20429;-72
2023/04/24 07:34:31;;;;;;;14.47;9.63;;;;;;;;;;5053068;28;20037;-72
2023/04/24 07:36:56;;;;;;;13.87;9.77;;;;;;;;;;5050739;28;20032;-72
2023/04/24 07:39:21;;;;;;;12.17;6.37;;;;;;;;;;5053321;28;20020;-72
2023/04/24 07:41:47;;;;;;;12.80;8.50;;;;;;;;;;5050544;28;20028;-72
2023/04/24 07:44:12;;;;;;;17.00;10.60;;;;;;;;;;5049176;28;20056;-72
2023/04/24 07:46:38;;;;;;;14.07;8.47;;;;;;;;;;5050595;28;20056;-72
2023/04/24 07:49:04;;;;;;;15.47;10.03;;;;;;;;;;5052786;28;20092;-73
2023/04/24 07:51:30;;;;;;;12.30;8.10;;;;;;;;;;5050504;28;20035;-71
2023/04/24 07:53:55;;;;;;;13.50;8.03;;;;;;;;;;5052925;28;20530;-71
2023/04/24 07:56:21;;;;;;;12.53;7.90;;;;;;;;;;5051910;28;20025;-71
2023/04/24 07:58:46;;;;;;;12.43;8.63;;;;;;;;;;5049265;28;20047;-72
2023/04/24 08:01:11;;;;;;;14.97;9.97;;;;;;;;;;5056123;28;20029;-72
2023/04/24 08:03:36;;;;;;;16.80;10.33;;;;;;;;;;5056106;28;20056;-72
2023/04/24 08:06:02;;;;;;;16.63;9.93;;;;;;;;;;5053502;28;20060;-72
2023/04/24 08:08:28;;;;;;;14.83;8.80;;;;;;;;;;5055996;28;20028;-72
2023/04/24 08:10:53;;;;;;;16.23;10.93;;;;;;;;;;5056087;28;20024;-72
2023/04/24 08:13:18;;;;;;;14.60;9.93;;;;;;;;;;5054939;28;20037;-72
2023/04/24 08:15:44;;;;;;;17.00;9.30;;;;;;;;;;5054822;28;20025;-72
2023/04/24 08:18:11;;;;;;;17.33;9.77;;;;;;;;;;5055050;28;20017;-72
2023/04/24 08:20:37;;;;;;;18.97;11.17;;;;;;;;;;5054568;28;20052;-72
2023/04/24 08:23:02;;;;;;;14.97;8.97;;;;;;;;;;5056373;28;20068;-71
2023/04/24 08:25:27;;;;;;;15.80;9.30;;;;;;;;;;5054382;28;20032;-72
2023/04/24 08:27:53;;;;;;;11.30;7.53;;;;;;;;;;5056124;28;20033;-71
2023/04/24 08:30:18;;;;;;;15.10;9.10;;;;;;;;;;5054442;28;20029;-72
2023/04/24 08:32:43;;;;;;;16.17;9.40;;;;;;;;;;5055947;28;20032;-72
2023/04/24 08:35:09;;;;;;;15.73;10.50;;;;;;;;;;5055736;28;20078;-72
2023/04/24 08:37:34;;;;;;;18.70;13.00;;;;;;;;;;5054054;28;20017;-72
2023/04/24 08:40:00;;;;;;;22.17;14.23;;;;;;;;;;5054151;28;20033;-71
2023/04/24 08:42:28;;;;;;;19.70;12.87;;;;;;;;;;5054336;28;20104;-72
2023/04/24 08:44:54;;;;;;;20.17;13.40;;;;;;;;;;5054271;28;20104;-72
2023/04/24 08:47:19;;;;;;;24.30;15.03;;;;;;;;;;5055691;28;20103;-72
2023/04/24 08:49:47;;;;;;;20.53;12.63;;;;;;;;;;5054334;28;20490;-72
2023/04/24 08:52:13;;;;;;;21.63;14.33;;;;;;;;;;5055686;28;20017;-72
2023/04/24 08:54:39;;;;;;;20.53;15.27;;;;;;;;;;5056186;28;20036;-71
2023/04/24 08:57:07;;;;;;;21.57;13.07;;;;;;;;;;5053079;28;20052;-72
2023/04/24 08:59:33;;;;;;;18.10;12.37;;;;;;;;;;5054586;28;20083;-71
2023/04/24 09:01:59;;;;;;;18.27;10.50;;;;;;;;;;5053780;28;20032;-71
2023/04/24 09:04:25;;;;;;;14.27;7.93;;;;;;;;;;5055793;28;20075;-72
2023/04/24 09:06:51;;;;;;;16.00;11.30;;;;;;;;;;5055581;28;20029;-72
2023/04/24 09:09:17;;;;;;;14.73;10.43;;;;;;;;;;5055744;28;20025;-73
2023/04/24 09:11:43;;;;;;;17.23;9.87;;;;;;;;;;5052907;28;20037;-71
2023/04/24 09:14:09;;;;;;;12.73;9.03;;;;;;;;;;5054309;28;20473;-72
2023/04/24 09:16:35;;;;;;;12.30;8.47;;;;;;;;;;5055630;28;20017;-73
2023/04/24 09:19:00;;;;;;;13.37;7.83;;;;;;;;;;5055542;28;20021;-73
2023/04/24 09:21:31;;;;;;;10.87;8.37;;;;;;;;;;5054600;28;20104;-75
2023/04/24 09:24:07;;;;;;;12.25;8.25;;;;;;;;;;5055545;28;20087;-73
2023/04/24 09:26:34;;;;;;;12.03;7.67;;;;;;;;;;5055401;28;20021;-73
2023/04/24 09:28:59;;;;;;;13.00;8.90;;;;;;;;;;5054911;28;20070;-73
2023/04/24 09:31:26;;;;;;;13.93;7.97;;;;;;;;;;5053210;28;20472;-71
2023/04/24 09:33:56;;;;;;;12.13;9.00;;;;;;;;;;5055679;28;20100;-72
2023/04/24 09:36:36;;;;;;;9.80;6.90;;;;;;;;;;5054744;28;20025;-72
2023/04/24 09:39:02;;;;;;;11.70;6.67;;;;;;;;;;5053350;28;20024;-73
2023/04/24 09:41:28;;;;;;;11.57;7.13;;;;;;;;;;5053897;28;20075;-73
2023/04/24 09:43:55;;;;;;;9.50;6.63;;;;;;;;;;5055387;28;20071;-73
2023/04/24 09:46:21;;;;;;;14.13;9.47;;;;;;;;;;5050793;28;20376;-73
2023/04/24 09:48:47;;;;;;;15.67;11.73;;;;;;;;;;5054614;28;20489;-73
2023/04/24 09:51:12;;;;;;;13.40;9.87;;;;;;;;;;5054945;28;20021;-73
2023/04/24 09:53:39;;;;;;;13.20;10.33;;;;;;;;;;5048260;28;20067;-73
2023/04/24 09:56:08;;;;;;;14.33;9.93;;;;;;;;;;5053161;28;20103;-73
2023/04/24 09:58:35;;;;;;;10.47;8.13;;;;;;;;;;5053560;28;20120;-73
2023/04/24 10:01:01;;;;;;;10.40;7.13;;;;;;;;;;5052685;28;20128;-73
2023/04/24 10:03:26;;;;;;;9.73;5.80;;;;;;;;;;5053759;28;20128;-73
2023/04/24 10:05:52;;;;;;;12.13;7.73;;;;;;;;;;5054749;28;20044;-73
2023/04/24 10:08:18;;;;;;;11.00;8.73;;;;;;;;;;5054908;28;20470;-73
2023/04/24 10:10:44;;;;;;;10.27;7.00;;;;;;;;;;5053840;28;20420;-73
2023/04/24 10:13:10;;;;;;;12.50;8.40;;;;;;;;;;5054324;28;20162;-73
2023/04/24 10:15:36;;;;;;;9.50;6.83;;;;;;;;;;5054784;28;20020;-73
2023/04/24 10:18:01;;;;;;;10.07;7.67;;;;;;;;;;5054684;28;20017;-73
2023/04/24 10:20:29;;;;;;;8.40;6.83;;;;;;;;;;5054353;28;20029;-71
2023/04/24 10:22:55;;;;;;;9.27;7.80;;;;;;;;;;5053511;28;20021;-71
2023/04/24 10:25:22;;;;;;;11.67;7.83;;;;;;;;;;5054195;28;20480;-71
2023/04/24 10:27:48;;;;;;;8.80;6.40;;;;;;;;;;5052956;28;20017;-71
2023/04/24 10:30:14;;;;;;;8.37;6.47;;;;;;;;;;5054427;28;20047;-71
2023/04/24 10:32:39;;;;;;;10.67;7.73;;;;;;;;;;5052714;28;20541;-70
2023/04/24 10:35:08;;;;;;;8.73;6.43;;;;;;;;;;5052656;28;20021;-73
2023/04/24 10:37:36;;;;;;;7.90;5.87;;;;;;;;;;5054344;28;20072;-73
2023/04/24 10:40:01;;;;;;;9.33;6.10;;;;;;;;;;5050328;28;20028;-72
2023/04/24 10:42:27;;;;;;;7.93;4.87;;;;;;;;;;5053546;28;20029;-73
2023/04/24 10:44:53;;;;;;;6.97;5.33;;;;;;;;;;5051506;28;20074;-73
2023/04/24 10:47:18;;;;;;;7.07;3.83;;;;;;;;;;5053807;28;20028;-73
2023/04/24 10:49:44;;;;;;;5.77;4.03;;;;;;;;;;5051934;28;20032;-73
2023/04/24 10:52:09;;;;;;;6.80;4.63;;;;;;;;;;5053190;28;20017;-73
2023/04/24 10:54:36;;;;;;;8.37;4.97;;;;;;;;;;5054096;28;20021;-74
2023/04/24 10:57:39;;;;;;;5.93;4.07;;;;;;;;;;5051603;28;20017;-73
2023/04/24 11:00:20;;;;;;;7.93;5.03;;;;;;;;;;4991066;28;20514;-73
2023/04/24 11:02:49;;;;;;;14.63;5.60;;;;;;;;;;4991221;28;20104;-73
2023/04/24 11:05:15;;;;;;;8.87;6.30;;;;;;;;;;4991515;28;20445;-73
2023/04/24 11:07:59;;;;;;;7.37;4.87;;;;;;;;;;4991651;28;20037;-73
2023/04/24 11:10:27;;;;;;;8.73;4.40;;;;;;;;;;4991276;28;20076;-73
2023/04/24 11:12:54;;;;;;;6.67;3.93;;;;;;;;;;4991305;28;20494;-72
2023/04/24 11:15:19;;;;;;;5.30;3.23;;;;;;;;;;4987774;28;20034;-72
2023/04/24 11:17:45;;;;;;;5.03;2.90;;;;;;;;;;4972644;28;20073;-73
2023/04/24 11:20:11;;;;;;;5.97;3.50;;;;;;;;;;4989766;28;20050;-72
2023/04/24 11:22:42;;;;;;;12.00;3.10;;;;;;;;;;4991926;28;20033;-72
2023/04/24 11:25:11;;;;;;;6.82;3.80;;;;;;;;;;4992025;28;20096;-72
2023/04/24 11:27:43;;;;;;;7.07;3.17;;;;;;;;;;4991941;28;20038;-73
2023/04/24 11:30:10;;;;;;;6.10;3.17;;;;;;;;;;5004454;28;20040;-73
2023/04/24 11:32:36;;;;;;;4.70;2.40;;;;;;;;;;5033894;28;20434;-73
2023/04/24 11:35:03;;;;;;;6.37;2.10;;;;;;;;;;5050892;28;20013;-73
2023/04/24 11:37:39;;;;;;;5.17;2.40;;;;;;;;;;5051498;28;20021;-72
2023/04/24 11:40:05;;;;;;;3.80;1.73;;;;;;;;;;5052362;28;20052;-72
2023/04/24 11:42:34;;;;;;;4.77;2.23;;;;;;;;;;5052984;28;20060;-73
2023/04/24 11:45:01;;;;;;;3.93;1.87;;;;;;;;;;5051149;28;20087;-72
2023/04/24 11:47:30;;;;;;;5.53;2.53;;;;;;;;;;5052510;28;20067;-72
2023/04/24 11:49:56;;;;;;;5.90;2.50;;;;;;;;;;5052025;28;20032;-73
2023/04/24 11:52:21;;;;;;;8.37;2.17;;;;;;;;;;5050612;28;20021;-73
2023/04/24 11:54:47;;;;;;;6.43;3.23;;;;;;;;;;5032705;28;20025;-73
2023/04/24 11:57:13;;;;;;;8.80;3.67;;;;;;;;;;5052898;28;20025;-73
2023/04/24 11:59:38;;;;;;;10.50;5.07;;;;;;;;;;5052268;28;20047;-72
2023/04/24 12:02:04;;;;;;;10.47;5.47;;;;;;;;;;5049486;28;20082;-72
2023/04/24 12:04:38;;;;;;;11.47;5.97;;;;;;;;;;5051798;28;20033;-72
2023/04/24 12:07:04;;;;;;;14.23;7.23;;;;;;;;;;5050789;28;20033;-73
2023/04/24 12:09:40;;;;;;;14.83;7.10;;;;;;;;;;5051792;28;20033;-72
2023/04/24 12:12:06;;;;;;;16.60;8.10;;;;;;;;;;5049914;28;20469;-73
2023/04/24 12:14:31;;;;;;;15.77;8.20;;;;;;;;;;5052994;28;20074;-72
2023/04/24 12:16:57;;;;;;;12.93;7.10;;;;;;;;;;5050373;28;20036;-73
2023/04/24 12:19:23;;;;;;;20.73;9.97;;;;;;;;;;5052006;28;20473;-73
2023/04/24 12:22:01;;;;;;;18.27;9.10;;;;;;;;;;5051366;28;20021;-73
2023/04/24 12:24:26;;;;;;;22.73;9.60;;;;;;;;;;5052832;28;20036;-72
2023/04/24 12:26:53;;;;;;;17.30;9.00;;;;;;;;;;5049834;28;20400;-72
2023/04/24 12:29:21;;;;;;;24.30;11.67;;;;;;;;;;5051824;28;20021;-73
2023/04/24 12:31:47;;;;;;;16.53;7.70;;;;;;;;;;5050374;28;20044;-73
2023/04/24 12:34:23;;;;;;;14.70;7.17;;;;;;;;;;5051210;28;20531;-73
2023/04/24 12:36:48;;;;;;;20.33;10.13;;;;;;;;;;5049920;28;20029;-73
2023/04/24 12:39:14;;;;;;;11.43;5.07;;;;;;;;;;5052742;28;20044;-73
2023/04/24 12:41:48;;;;;;;10.53;4.63;;;;;;;;;;5050872;28;20447;-73
2023/04/24 12:44:15;;;;;;;11.90;6.20;;;;;;;;;;5051600;28;20025;-73
2023/04/24 12:46:40;;;;;;;15.23;7.50;;;;;;;;;;5053770;28;20087;-72
2023/04/24 12:49:05;;;;;;;18.13;7.83;;;;;;;;;;5056064;28;20493;-75
2023/04/24 12:51:31;;;;;;;12.90;6.27;;;;;;;;;;5055297;28;20100;-73
2023/04/24 12:53:56;;;;;;;15.43;7.83;;;;;;;;;;5055105;28;20035;-73
2023/04/24 12:56:21;;;;;;;15.10;8.07;;;;;;;;;;5055663;28;20052;-74
2023/04/24 12:58:47;;;;;;;16.67;8.00;;;;;;;;;;5055656;28;20091;-74
2023/04/24 13:01:12;;;;;;;13.43;7.60;;;;;;;;;;5053885;28;20035;-74
2023/04/24 13:03:37;;;;;;;15.33;8.43;;;;;;;;;;5055239;28;20102;-74
2023/04/24 13:06:03;;;;;;;13.97;6.80;;;;;;;;;;5053909;28;20113;-74
2023/04/24 13:08:28;;;;;;;8.53;4.77;;;;;;;;;;5053501;28;20469;-74
2023/04/24 13:10:53;;;;;;;9.73;4.33;;;;;;;;;;5055443;28;20476;-74
2023/04/24 13:13:19;;;;;;;9.60;4.83;;;;;;;;;;5055951;28;20044;-74
2023/04/24 13:15:44;;;;;;;12.33;6.53;;;;;;;;;;5053485;28;20025;-75
2023/04/24 13:18:09;;;;;;;12.60;5.40;;;;;;;;;;5055212;28;20029;-74
2023/04/24 13:20:35;;;;;;;15.47;7.43;;;;;;;;;;5056011;28;20611;-74
2023/04/24 13:23:00;;;;;;;15.03;7.63;;;;;;;;;;5055557;28;20096;-74
2023/04/24 13:25:26;;;;;;;13.13;7.33;;;;;;;;;;5055397;28;20047;-74
2023/04/24 13:27:51;;;;;;;15.37;7.57;;;;;;;;;;5055419;28;20056;-75
2023/04/24 13:30:16;;;;;;;16.10;8.33;;;;;;;;;;5054776;28;20091;-74
2023/04/24 13:32:42;;;;;;;16.57;8.47;;;;;;;;;;5054960;28;20063;-74
2023/04/24 13:35:07;;;;;;;14.13;7.70;;;;;;;;;;5052440;28;20469;-73
2023/04/24 13:37:33;;;;;;;16.77;8.60;;;;;;;;;;5053980;28;20020;-75
2023/04/24 13:39:58;;;;;;;19.37;8.47;;;;;;;;;;5053201;28;20078;-74
2023/04/24 13:42:23;;;;;;;19.60;9.23;;;;;;;;;;5054583;28;20104;-73
2023/04/24 13:44:49;;;;;;;17.87;9.13;;;;;;;;;;5053079;28;20074;-73
2023/04/24 13:47:14;;;;;;;10.47;5.43;;;;;;;;;;5054528;28;20112;-73
2023/04/24 13:49:39;;;;;;;13.97;6.97;;;;;;;;;;5052938;28;20025;-74
2023/04/24 13:52:05;;;;;;;16.30;8.07;;;;;;;;;;5054609;28;20377;-74
2023/04/24 13:54:30;;;;;;;18.57;7.73;;;;;;;;;;5052149;28;20043;-73
2023/04/24 13:56:57;;;;;;;14.17;6.33;;;;;;;;;;5053576;28;20017;-74
2023/04/24 13:59:23;;;;;;;16.50;7.47;;;;;;;;;;5054605;28;20031;-74
2023/04/24 14:01:48;;;;;;;18.27;7.60;;;;;;;;;;5051840;28;20108;-73
2023/04/24 14:04:14;;;;;;;15.20;5.80;;;;;;;;;;5034835;28;20132;-74
2023/04/24 14:06:39;;;;;;;12.60;5.47;;;;;;;;;;5049825;28;20029;-74
2023/04/24 14:09:04;;;;;;;12.70;5.37;;;;;;;;;;5052641;28;20531;-73
2023/04/24 14:11:30;;;;;;;11.90;5.03;;;;;;;;;;5051738;28;20029;-72
2023/04/24 14:13:58;;;;;;;10.00;4.50;;;;;;;;;;5049308;28;20064;-73
2023/04/24 14:16:23;;;;;;;12.10;4.37;;;;;;;;;;5046199;28;20032;-72
2023/04/24 14:18:50;;;;;;;11.70;5.10;;;;;;;;;;5054664;28;20443;-73
2023/04/24 14:21:15;;;;;;;12.67;5.10;;;;;;;;;;5052398;28;20374;-72
2023/04/24 14:23:40;;;;;;;16.10;4.10;;;;;;;;;;5054018;28;20112;-73
2023/04/24 14:26:06;;;;;;;15.33;5.43;;;;;;;;;;5051621;28;20043;-73
2023/04/24 14:28:32;;;;;;;11.70;4.70;;;;;;;;;;5054387;28;20021;-73
2023/04/24 14:30:57;;;;;;;13.07;3.63;;;;;;;;;;5053425;28;20059;-73